Time;durP1;ratioP1;P1;durP2;ratioP2;P2;SDS_P1;SDS_P2;PMS_P1;PMS_P2;Temp;Humidity;BMP_temperature;BMP_pressure;BME280_temperature;BME280_humidity;BME280_pressure;Samples;Min_cycle;Max_cycle;Signal;HPM_P1;HPM_P2
2022/03/06 00:00:11;;;;;;;15.43;8.32;;;10.00;42.00;;;;;;5070931;28;20074;-79
2022/03/06 00:02:37;;;;;;;14.57;7.82;;;10.00;42.40;;;;;;5061457;28;20439;-79
2022/03/06 00:05:04;;;;;;;13.88;7.72;;;10.10;42.30;;;;;;5085200;28;20103;-79
2022/03/06 00:07:30;;;;;;;12.55;7.32;;;10.20;42.10;;;;;;5068550;28;20033;-80
2022/03/06 00:09:55;;;;;;;14.77;7.43;;;10.00;42.20;;;;;;5073848;28;20036;-82
2022/03/06 00:12:21;;;;;;;12.27;7.45;;;10.00;42.50;;;;;;5054500;28;20063;-79
2022/03/06 00:14:47;;;;;;;15.18;8.13;;;9.80;42.40;;;;;;5053915;28;20123;-78
2022/03/06 00:17:12;;;;;;;12.95;8.02;;;9.10;42.90;;;;;;5072440;28;20053;-81
2022/03/06 00:19:38;;;;;;;13.32;7.53;;;8.60;45.10;;;;;;5072481;28;20025;-79
2022/03/06 00:22:04;;;;;;;15.73;7.22;;;8.10;47.00;;;;;;5073096;28;20017;-81
2022/03/06 00:24:29;;;;;;;13.13;7.47;;;8.60;46.30;;;;;;5078235;28;20032;-80
2022/03/06 00:26:55;;;;;;;12.63;7.20;;;9.10;45.40;;;;;;5094357;28;20183;-83
2022/03/06 00:29:21;;;;;;;12.63;7.07;;;9.60;44.70;;;;;;5085049;28;20024;-85
2022/03/06 00:31:46;;;;;;;16.27;7.82;;;9.90;44.10;;;;;;5096118;28;20458;-81
2022/03/06 00:34:12;;;;;;;13.82;7.80;;;10.10;43.60;;;;;;5078084;28;20165;-84
2022/03/06 00:36:39;;;;;;;13.93;7.53;;;10.00;43.20;;;;;;5077950;28;20027;-81
2022/03/06 00:39:05;;;;;;;13.75;7.93;;;10.00;43.00;;;;;;5078057;28;20051;-79
2022/03/06 00:41:31;;;;;;;15.88;8.07;;;10.00;42.70;;;;;;5096153;28;20126;-81
2022/03/06 00:43:56;;;;;;;15.95;8.75;;;9.80;42.70;;;;;;5096081;28;20020;-79
2022/03/06 00:46:22;;;;;;;16.63;8.93;;;9.70;42.90;;;;;;5058011;28;20044;-79
2022/03/06 00:48:48;;;;;;;13.73;7.55;;;9.60;43.40;;;;;;5064347;28;20027;-79
2022/03/06 00:51:15;;;;;;;15.05;8.40;;;9.40;44.50;;;;;;5094734;28;20062;-81
2022/03/06 00:53:42;;;;;;;14.48;8.40;;;9.20;44.40;;;;;;5057556;28;20033;-81
2022/03/06 00:56:08;;;;;;;12.73;6.97;;;9.40;44.10;;;;;;5079041;28;20424;-78
2022/03/06 00:58:34;;;;;;;12.82;7.40;;;8.50;45.80;;;;;;5073534;28;20028;-80
2022/03/06 01:00:59;;;;;;;14.65;7.57;;;8.10;46.90;;;;;;5080258;28;20086;-80
2022/03/06 01:03:25;;;;;;;17.75;8.48;;;7.70;46.10;;;;;;5091507;28;20119;-79
2022/03/06 01:05:51;;;;;;;14.65;8.25;;;7.80;46.20;;;;;;5076637;28;20024;-79
2022/03/06 01:08:17;;;;;;;19.98;8.63;;;8.20;45.80;;;;;;5076152;28;20099;-80
2022/03/06 01:10:45;;;;;;;16.73;8.57;;;8.50;45.10;;;;;;5095242;28;20104;-79
2022/03/06 01:13:11;;;;;;;13.30;8.27;;;8.80;44.90;;;;;;5059084;28;20517;-83
2022/03/06 01:15:37;;;;;;;16.52;8.52;;;9.00;44.30;;;;;;5070724;28;20024;-79
2022/03/06 01:18:07;;;;;;;16.70;9.00;;;8.40;44.40;;;;;;5083495;28;20032;-80
2022/03/06 01:20:34;;;;;;;16.42;8.70;;;8.20;45.10;;;;;;5057017;28;20120;-80
2022/03/06 01:23:00;;;;;;;14.77;8.15;;;8.10;45.10;;;;;;5074655;28;20036;-79
2022/03/06 01:25:26;;;;;;;17.70;9.23;;;8.10;45.40;;;;;;5076081;28;20111;-82
2022/03/06 01:27:52;;;;;;;16.38;9.20;;;8.20;45.90;;;;;;5056972;28;20078;-81
2022/03/06 01:30:21;;;;;;;27.38;13.65;;;8.10;46.10;;;;;;5077745;28;20077;-80
2022/03/06 01:32:50;;;;;;;23.25;11.05;;;8.20;46.30;;;;;;5088512;28;20029;-78
2022/03/06 01:35:16;;;;;;;25.52;12.57;;;8.30;46.00;;;;;;5055900;28;20035;-79
2022/03/06 01:37:41;;;;;;;19.33;10.50;;;8.50;46.10;;;;;;5074643;28;20028;-79
2022/03/06 01:40:09;;;;;;;24.33;12.30;;;8.60;45.60;;;;;;5072875;28;20441;-79
2022/03/06 01:42:39;;;;;;;21.98;12.13;;;8.70;45.30;;;;;;5066358;28;20028;-79
2022/03/06 01:45:06;;;;;;;;;;;8.50;45.50;;;;;;5060024;28;20029;-80
2022/03/06 01:47:40;;;;;;;16.25;8.55;;;8.20;46.80;;;;;;5076681;28;19907;-79
2022/03/06 01:50:15;;;;;;;20.23;9.23;;;7.90;46.60;;;;;;5076476;28;20054;-80
2022/03/06 01:52:41;;;;;;;17.33;9.50;;;8.10;46.40;;;;;;5094241;28;20048;-79
2022/03/06 01:55:07;;;;;;;50.05;21.90;;;8.30;46.40;;;;;;5076537;28;20359;-80
2022/03/06 01:57:33;;;;;;;18.88;9.40;;;8.10;47.00;;;;;;5076347;28;20457;-79
2022/03/06 02:00:00;;;;;;;15.80;8.93;;;7.50;47.60;;;;;;5090062;28;20486;-82
2022/03/06 02:02:26;;;;;;;18.40;8.88;;;7.30;48.00;;;;;;5094785;28;20060;-79
2022/03/06 02:04:52;;;;;;;16.27;8.77;;;7.50;47.60;;;;;;5086885;28;20055;-78
2022/03/06 02:07:18;;;;;;;20.00;9.88;;;7.60;47.10;;;;;;5070940;28;20157;-79
2022/03/06 02:09:44;;;;;;;18.17;8.70;;;7.80;46.90;;;;;;5093538;28;20016;-80
2022/03/06 02:12:27;;;;;;;15.05;9.05;;;8.00;46.70;;;;;;5056332;28;20031;-80
2022/03/06 02:14:58;;;;;;;17.42;8.68;;;8.10;46.50;;;;;;5074354;28;20063;-80
2022/03/06 02:17:25;;;;;;;16.67;8.82;;;7.90;47.30;;;;;;5056535;28;20032;-81
2022/03/06 02:19:58;;;;;;;16.05;8.70;;;7.80;47.90;;;;;;5074329;28;20103;-82
2022/03/06 02:22:30;;;;;;;16.95;8.70;;;7.80;46.90;;;;;;5061360;28;20035;-82
2022/03/06 02:24:57;;;;;;;16.73;8.88;;;7.80;46.80;;;;;;5094198;28;20382;-81
2022/03/06 02:27:23;;;;;;;18.17;9.13;;;7.90;47.20;;;;;;5076323;28;20078;-81
2022/03/06 02:29:50;;;;;;;14.60;7.95;;;7.70;46.90;;;;;;5089812;28;20024;-81
2022/03/06 02:32:19;;;;;;;16.17;8.48;;;7.70;47.00;;;;;;5085537;28;20116;-81
2022/03/06 02:34:46;;;;;;;15.02;8.65;;;7.60;47.80;;;;;;5076021;28;20478;-81
2022/03/06 02:37:13;;;;;;;19.35;9.77;;;7.40;48.90;;;;;;5093854;28;20108;-81
2022/03/06 02:39:39;;;;;;;14.63;8.35;;;7.30;48.00;;;;;;5075658;28;20028;-82
2022/03/06 02:42:05;;;;;;;15.65;8.35;;;7.50;48.00;;;;;;5069750;28;20021;-81
2022/03/06 02:44:32;;;;;;;16.02;7.88;;;7.30;47.20;;;;;;5062427;28;20375;-82
2022/03/06 02:46:57;;;;;;;16.27;8.70;;;7.00;48.60;;;;;;5088028;28;20024;-82
2022/03/06 02:49:23;;;;;;;15.88;8.13;;;6.50;50.40;;;;;;5055946;28;20426;-81
2022/03/06 02:51:49;;;;;;;15.93;8.40;;;6.70;49.90;;;;;;5056147;28;20041;-82
2022/03/06 02:54:17;;;;;;;17.02;8.25;;;6.90;48.90;;;;;;5090945;28;20089;-82
2022/03/06 02:56:44;;;;;;;17.38;9.15;;;6.90;48.10;;;;;;5075715;28;20038;-87
2022/03/06 02:59:13;;;;;;;15.25;8.20;;;6.90;49.40;;;;;;5067470;28;20395;-82
2022/03/06 03:01:41;;;;;;;17.75;9.25;;;6.90;48.90;;;;;;5055879;28;20105;-82
2022/03/06 03:04:09;;;;;;;15.88;9.02;;;6.80;49.60;;;;;;5080438;28;20398;-83
2022/03/06 03:06:34;;;;;;;15.93;8.48;;;7.00;49.10;;;;;;5059220;28;20406;-83
2022/03/06 03:09:02;;;;;;;16.02;8.38;;;6.80;49.40;;;;;;5055651;28;20107;-82
2022/03/06 03:11:31;;;;;;;18.48;9.57;;;6.50;49.20;;;;;;5074124;28;20031;-82
2022/03/06 03:13:57;;;;;;;17.70;8.48;;;6.50;49.80;;;;;;5075580;28;20040;-82
2022/03/06 03:16:22;;;;;;;19.23;9.77;;;6.60;49.30;;;;;;5071688;28;20021;-85
2022/03/06 03:18:48;;;;;;;18.48;8.52;;;6.60;49.00;;;;;;5055125;28;20025;-83
2022/03/06 03:21:14;;;;;;;15.32;8.75;;;6.80;48.60;;;;;;5055754;28;20056;-82
2022/03/06 03:23:39;;;;;;;16.52;8.68;;;7.10;48.20;;;;;;5055702;28;20028;-83
2022/03/06 03:26:05;;;;;;;17.55;9.10;;;7.20;48.50;;;;;;5056460;28;20025;-83
2022/03/06 03:28:31;;;;;;;18.13;8.98;;;7.40;48.50;;;;;;5060198;28;20368;-82
2022/03/06 03:30:56;;;;;;;16.20;9.32;;;7.50;47.90;;;;;;5075050;28;20107;-82
2022/03/06 03:33:22;;;;;;;16.38;8.57;;;7.10;49.80;;;;;;5075772;28;20036;-82
2022/03/06 03:35:48;;;;;;;20.05;9.20;;;7.20;49.10;;;;;;5075351;28;20024;-83
2022/03/06 03:38:14;;;;;;;15.93;8.75;;;6.90;50.20;;;;;;5075731;28;20032;-83
2022/03/06 03:40:40;;;;;;;16.00;8.50;;;6.10;52.60;;;;;;5090097;28;20058;-84
2022/03/06 03:43:06;;;;;;;16.98;8.70;;;5.70;50.30;;;;;;5086621;28;20040;-85
2022/03/06 03:45:32;;;;;;;17.77;9.15;;;5.80;50.50;;;;;;5061465;28;20383;-83
2022/03/06 03:47:57;;;;;;;16.83;8.65;;;6.00;50.50;;;;;;5071173;28;20039;-82
2022/03/06 03:50:23;;;;;;;16.48;9.07;;;6.40;49.60;;;;;;5085152;28;20048;-89
2022/03/06 03:52:49;;;;;;;19.50;8.93;;;6.30;49.60;;;;;;5073181;28;20048;-85
2022/03/06 03:55:15;;;;;;;19.17;9.25;;;6.60;49.60;;;;;;5055586;28;20037;-83
2022/03/06 03:57:40;;;;;;;16.40;9.00;;;6.80;49.00;;;;;;5063067;28;20071;-84
2022/03/06 04:00:08;;;;;;;17.77;9.15;;;6.80;48.70;;;;;;5095567;28;20031;-83
2022/03/06 04:02:34;;;;;;;16.05;8.85;;;6.80;49.40;;;;;;5059728;28;20032;-83
2022/03/06 04:05:00;;;;;;;16.67;8.73;;;7.00;48.80;;;;;;5060306;28;20020;-81
2022/03/06 04:07:26;;;;;;;19.27;9.32;;;6.80;48.10;;;;;;5088396;28;20513;-84
2022/03/06 04:09:51;;;;;;;19.48;9.93;;;6.70;49.90;;;;;;5059312;28;20051;-84
2022/03/06 04:12:17;;;;;;;17.42;9.05;;;6.70;49.40;;;;;;5074501;28;20025;-89
2022/03/06 04:14:43;;;;;;;17.73;9.48;;;6.50;50.10;;;;;;5097236;28;20035;-87
2022/03/06 04:17:09;;;;;;;17.48;9.35;;;6.30;51.20;;;;;;5070188;28;20471;-84
2022/03/06 04:19:34;;;;;;;17.15;9.38;;;6.50;51.20;;;;;;5075672;28;20028;-84
2022/03/06 04:22:00;;;;;;;23.15;9.85;;;6.70;50.40;;;;;;5097328;28;20024;-86
2022/03/06 04:24:26;;;;;;;20.20;9.73;;;7.10;49.70;;;;;;5064313;28;20040;-83
2022/03/06 04:26:52;;;;;;;17.83;9.45;;;7.30;49.30;;;;;;5076853;28;20467;-87
2022/03/06 04:29:18;;;;;;;17.42;9.90;;;7.00;50.00;;;;;;5059012;28;20379;-84
2022/03/06 04:31:44;;;;;;;20.15;9.90;;;6.90;51.00;;;;;;5094725;28;20459;-83
2022/03/06 04:34:09;;;;;;;19.30;10.18;;;6.90;50.10;;;;;;5078660;28;20051;-84
2022/03/06 04:36:35;;;;;;;16.40;9.13;;;6.90;48.40;;;;;;5078729;28;20063;-84
2022/03/06 04:39:02;;;;;;;17.15;10.10;;;6.90;48.50;;;;;;5078936;28;20028;-82
2022/03/06 04:41:28;;;;;;;19.63;9.93;;;7.10;48.40;;;;;;5077342;28;20068;-80
2022/03/06 04:43:54;;;;;;;16.02;9.43;;;7.50;48.20;;;;;;5078461;28;20056;-85
2022/03/06 04:46:20;;;;;;;17.95;10.52;;;7.70;47.30;;;;;;5062947;28;20388;-83
2022/03/06 04:48:45;;;;;;;17.98;10.27;;;7.90;46.60;;;;;;5058586;28;20476;-84
2022/03/06 04:51:11;;;;;;;18.10;9.95;;;8.00;46.10;;;;;;5059421;28;20031;-84
2022/03/06 04:53:37;;;;;;;20.40;10.07;;;8.10;45.50;;;;;;5058426;28;20037;-82
2022/03/06 04:56:04;;;;;;;17.42;9.57;;;8.20;45.00;;;;;;5076194;28;20066;-83
2022/03/06 04:58:30;;;;;;;18.02;9.52;;;8.40;44.40;;;;;;5062609;28;20028;-81
2022/03/06 05:00:56;;;;;;;18.45;9.35;;;8.00;44.10;;;;;;5081907;28;20024;-82
2022/03/06 05:03:22;;;;;;;17.25;9.80;;;8.30;45.00;;;;;;5077860;28;20038;-82
2022/03/06 05:05:51;;;;;;;18.45;9.63;;;8.50;45.00;;;;;;5094651;28;20024;-82
2022/03/06 05:08:18;;;;;;;18.98;9.98;;;8.70;44.90;;;;;;5060791;28;20421;-83
2022/03/06 05:10:44;;;;;;;17.48;9.55;;;8.70;45.10;;;;;;5077788;28;20062;-83
2022/03/06 05:13:10;;;;;;;18.40;9.80;;;8.80;45.20;;;;;;5093932;28;20040;-83
2022/03/06 05:15:36;;;;;;;17.77;10.30;;;8.90;44.70;;;;;;5093399;28;20024;-84
2022/03/06 05:18:02;;;;;;;16.88;9.77;;;8.70;46.00;;;;;;5063453;28;20100;-83
2022/03/06 05:20:29;;;;;;;16.95;10.20;;;8.70;46.00;;;;;;5078077;28;20032;-84
2022/03/06 05:22:54;;;;;;;17.50;9.82;;;8.50;45.50;;;;;;5069550;28;20029;-82
2022/03/06 05:25:20;;;;;;;18.50;10.55;;;8.40;45.80;;;;;;5059146;28;20048;-81
2022/03/06 05:27:46;;;;;;;17.95;9.93;;;8.40;46.10;;;;;;5084041;28;20120;-82
2022/03/06 05:30:13;;;;;;;16.05;9.48;;;8.40;45.00;;;;;;5063051;28;20069;-82
2022/03/06 05:32:39;;;;;;;16.65;10.02;;;8.40;45.20;;;;;;5064205;28;20032;-83
2022/03/06 05:35:06;;;;;;;17.83;10.07;;;8.50;45.20;;;;;;5077563;28;20100;-81
2022/03/06 05:37:32;;;;;;;16.27;9.23;;;8.70;44.90;;;;;;5067144;28;20024;-81
2022/03/06 05:39:57;;;;;;;16.42;9.88;;;8.50;44.10;;;;;;5057396;28;20070;-81
2022/03/06 05:42:23;;;;;;;17.48;9.77;;;8.70;44.90;;;;;;5075603;28;20475;-81
2022/03/06 05:44:49;;;;;;;16.27;9.35;;;8.60;46.00;;;;;;5085175;28;20379;-81
2022/03/06 05:47:15;;;;;;;17.80;10.35;;;8.60;45.50;;;;;;5069392;28;20089;-81
2022/03/06 05:49:40;;;;;;;17.45;10.20;;;8.70;45.70;;;;;;5056626;28;20101;-80
2022/03/06 05:52:06;;;;;;;16.90;9.73;;;8.80;44.90;;;;;;5084325;28;20543;-81
2022/03/06 05:54:32;;;;;;;17.65;10.18;;;8.90;45.30;;;;;;5074998;28;20508;-81
2022/03/06 05:56:58;;;;;;;16.67;9.32;;;8.70;44.90;;;;;;5075608;28;20016;-81
2022/03/06 05:59:24;;;;;;;19.30;10.63;;;8.90;45.20;;;;;;5056651;28;20861;-81
2022/03/06 06:01:49;;;;;;;16.20;9.18;;;9.00;44.70;;;;;;5063640;28;20115;-82
2022/03/06 06:04:15;;;;;;;16.42;10.65;;;9.00;44.50;;;;;;5080314;28;20502;-83
2022/03/06 06:06:41;;;;;;;18.98;11.10;;;9.00;44.20;;;;;;5079606;28;20020;-82
2022/03/06 06:09:07;;;;;;;15.88;9.68;;;8.90;44.30;;;;;;5074051;28;20107;-83
2022/03/06 06:11:33;;;;;;;19.92;10.20;;;8.90;43.50;;;;;;5069898;28;20024;-81
2022/03/06 06:13:59;;;;;;;15.75;9.70;;;9.00;43.30;;;;;;5091896;28;20089;-82
2022/03/06 06:16:25;;;;;;;16.20;9.43;;;9.10;43.30;;;;;;5079149;28;20024;-82
2022/03/06 06:18:50;;;;;;;17.08;9.63;;;9.20;43.30;;;;;;5056122;28;20028;-81
2022/03/06 06:21:18;;;;;;;16.58;8.90;;;9.20;42.80;;;;;;5055686;28;20082;-80
2022/03/06 06:23:44;;;;;;;15.40;9.30;;;8.90;43.40;;;;;;5063406;28;20035;-84
2022/03/06 06:26:11;;;;;;;13.77;8.30;;;8.70;43.50;;;;;;5073865;28;20029;-80
2022/03/06 06:28:36;;;;;;;14.50;8.73;;;8.40;43.50;;;;;;5073806;28;20020;-79
2022/03/06 06:31:04;;;;;;;13.52;8.02;;;8.00;43.90;;;;;;5089397;28;20012;-79
2022/03/06 06:33:30;;;;;;;14.50;8.30;;;7.40;44.90;;;;;;5091829;28;20133;-82
2022/03/06 06:35:56;;;;;;;14.90;8.77;;;6.80;45.80;;;;;;5079900;28;20032;-81
2022/03/06 06:38:22;;;;;;;15.95;8.40;;;7.10;46.10;;;;;;5073837;28;20024;-79
2022/03/06 06:40:49;;;;;;;16.23;8.95;;;7.70;44.60;;;;;;5087733;28;20023;-81
2022/03/06 06:43:15;;;;;;;15.07;8.38;;;8.00;44.70;;;;;;5079382;28;20388;-79
2022/03/06 06:45:41;;;;;;;15.20;7.90;;;8.30;43.80;;;;;;5055714;28;20047;-81
2022/03/06 06:48:07;;;;;;;13.05;7.72;;;8.10;44.00;;;;;;5056382;28;20387;-79
2022/03/06 06:50:33;;;;;;;12.15;7.57;;;7.90;44.50;;;;;;5058182;28;20023;-83
2022/03/06 06:52:58;;;;;;;12.98;7.80;;;7.90;44.10;;;;;;5062481;28;20043;-83
2022/03/06 06:55:24;;;;;;;12.50;7.03;;;7.60;44.50;;;;;;5071127;28;20033;-80
2022/03/06 06:57:53;;;;;;;12.95;7.85;;;7.50;44.90;;;;;;5057446;28;20021;-81
2022/03/06 07:00:21;;;;;;;11.90;6.95;;;7.60;45.10;;;;;;5073639;28;20028;-80
2022/03/06 07:02:47;;;;;;;14.00;7.35;;;8.00;44.20;;;;;;4372634;28;10000414;-84
2022/03/06 07:05:14;;;;;;;11.40;7.00;;;8.10;43.80;;;;;;5073975;28;20035;-83
2022/03/06 07:07:39;;;;;;;13.05;7.50;;;7.80;44.20;;;;;;5055157;28;20017;-83
2022/03/06 07:10:06;;;;;;;11.27;6.63;;;7.70;44.30;;;;;;5071259;28;20032;-83
2022/03/06 07:12:59;;;;;;;10.57;6.18;;;7.50;45.00;;;;;;5072827;28;20196;-80
2022/03/06 07:15:32;;;;;;;12.00;6.90;;;7.40;45.10;;;;;;5080673;28;20064;-81
2022/03/06 07:18:01;;;;;;;10.90;6.53;;;7.20;45.50;;;;;;5054054;28;20095;-80
2022/03/06 07:20:28;;;;;;;10.20;6.15;;;7.20;45.40;;;;;;5071702;28;20048;-81
2022/03/06 07:22:55;;;;;;;11.93;5.97;;;7.00;45.40;;;;;;5060921;28;20415;-77
2022/03/06 07:25:21;;;;;;;9.98;6.22;;;7.10;45.70;;;;;;5073686;28;20054;-79
2022/03/06 07:27:47;;;;;;;11.52;6.07;;;7.20;45.50;;;;;;5089587;28;20050;-81
2022/03/06 07:30:13;;;;;;;9.80;6.10;;;7.20;45.20;;;;;;5071936;28;20055;-81
2022/03/06 07:32:47;;;;;;;8.85;5.70;;;7.40;45.70;;;;;;5060805;28;20031;-76
2022/03/06 07:35:14;;;;;;;9.95;5.30;;;7.70;45.10;;;;;;5065667;28;20028;-78
2022/03/06 07:37:49;;;;;;;9.63;5.50;;;8.20;44.40;;;;;;5074970;28;20040;-80
2022/03/06 07:40:20;;;;;;;10.45;5.80;;;7.90;44.40;;;;;;5087460;28;20048;-80
2022/03/06 07:42:47;;;;;;;9.77;5.57;;;8.00;44.40;;;;;;5075555;28;20033;-78
2022/03/06 07:45:13;;;;;;;10.30;6.10;;;8.10;44.20;;;;;;5057296;28;20440;-85
2022/03/06 07:47:39;;;;;;;10.75;5.80;;;8.40;44.00;;;;;;4723964;28;10000202;-80
2022/03/06 07:50:10;;;;;;;10.02;5.72;;;8.70;43.80;;;;;;5075414;28;20029;-77
2022/03/06 07:52:36;;;;;;;8.93;5.50;;;8.40;43.80;;;;;;5056896;28;20094;-80
2022/03/06 07:55:04;;;;;;;10.75;6.03;;;8.40;44.50;;;;;;5058336;28;20036;-79
2022/03/06 07:57:29;;;;;;;11.48;5.70;;;8.20;44.20;;;;;;5082757;28;20040;-84
2022/03/06 07:59:55;;;;;;;9.48;6.00;;;8.00;44.40;;;;;;5064632;28;20028;-79
2022/03/06 08:02:21;;;;;;;10.68;6.18;;;8.00;44.60;;;;;;5077090;28;20031;-83
2022/03/06 08:04:46;;;;;;;13.93;6.13;;;8.50;44.30;;;;;;5059363;28;20020;-84
2022/03/06 08:07:12;;;;;;;10.30;6.53;;;9.10;44.00;;;;;;5076896;28;20479;-87
2022/03/06 08:09:40;;;;;;;16.02;6.22;;;9.70;43.10;;;;;;5065793;28;20452;-84
2022/03/06 08:12:07;;;;;;;15.50;7.13;;;10.40;41.90;;;;;;4739783;28;10000357;-80
2022/03/06 08:14:32;;;;;;;11.68;6.50;;;11.30;40.60;;;;;;5072998;28;20071;-79
2022/03/06 08:16:58;;;;;;;11.55;6.50;;;11.60;39.80;;;;;;5074141;28;20048;-79
2022/03/06 08:19:24;;;;;;;14.43;5.93;;;12.60;39.30;;;;;;5057114;28;20033;-81
2022/03/06 08:21:50;;;;;;;21.10;14.77;;;13.40;38.30;;;;;;5056847;28;20119;-78
2022/03/06 08:24:16;;;;;;;11.73;6.75;;;14.00;38.00;;;;;;5073582;28;20059;-79
2022/03/06 08:26:43;;;;;;;9.52;6.55;;;15.00;36.40;;;;;;4724378;28;10000523;-78
2022/03/06 08:29:09;;;;;;;14.30;6.65;;;16.30;35.90;;;;;;5068715;28;20672;-79
2022/03/06 08:31:35;;;;;;;10.35;6.38;;;17.50;34.90;;;;;;5067968;28;20025;-79
2022/03/06 08:34:00;;;;;;;10.88;6.00;;;18.80;33.70;;;;;;5074790;28;20127;-81
2022/03/06 08:36:26;;;;;;;11.13;5.82;;;19.20;32.90;;;;;;5075409;28;20021;-81
2022/03/06 08:38:52;;;;;;;9.13;5.63;;;19.40;33.30;;;;;;5076402;28;20029;-83
2022/03/06 08:41:17;;;;;;;8.88;5.82;;;19.70;32.10;;;;;;5079257;28;20024;-83
2022/03/06 08:43:43;;;;;;;9.80;5.95;;;18.90;33.00;;;;;;5077931;28;20472;-80
2022/03/06 08:46:09;;;;;;;10.20;6.05;;;18.70;32.90;;;;;;5095738;28;20038;-81
2022/03/06 08:48:38;;;;;;;9.55;5.60;;;18.90;33.40;;;;;;5081168;28;21663;-80
2022/03/06 08:51:04;;;;;;;8.90;5.65;;;19.30;32.60;;;;;;5075559;28;20020;-84
2022/03/06 08:53:33;;;;;;;8.07;5.22;;;19.30;32.40;;;;;;5075616;28;20068;-79
2022/03/06 08:56:00;;;;;;;8.98;5.47;;;19.00;32.70;;;;;;5088199;28;20038;-81
2022/03/06 08:58:26;;;;;;;9.15;6.03;;;18.00;32.90;;;;;;5095397;28;20028;-81
2022/03/06 09:00:52;;;;;;;8.93;5.80;;;17.70;33.20;;;;;;5077444;28;20020;-81
2022/03/06 09:03:17;;;;;;;9.40;6.07;;;17.90;33.40;;;;;;5095269;28;20028;-81
2022/03/06 09:05:43;;;;;;;13.10;7.15;;;18.20;33.20;;;;;;5083666;28;20048;-83
2022/03/06 09:08:10;;;;;;;8.63;5.40;;;18.80;32.70;;;;;;5076612;28;20036;-86
2022/03/06 09:10:37;;;;;;;10.75;5.82;;;18.70;32.70;;;;;;5077305;28;20020;-80
2022/03/06 09:13:04;;;;;;;8.82;5.78;;;19.60;32.50;;;;;;5076492;28;20040;-83
2022/03/06 09:15:30;;;;;;;9.45;6.40;;;19.90;32.30;;;;;;5058675;28;20422;-80
2022/03/06 09:17:56;;;;;;;9.93;6.57;;;20.20;31.60;;;;;;5057226;28;20119;-83
2022/03/06 09:20:22;;;;;;;10.73;6.25;;;21.10;31.50;;;;;;5057100;28;20048;-82
2022/03/06 09:22:48;;;;;;;17.05;9.20;;;21.80;31.20;;;;;;5075400;28;20475;-85
2022/03/06 09:25:14;;;;;;;14.75;8.57;;;21.20;31.60;;;;;;5062465;28;20028;-81
2022/03/06 09:27:40;;;;;;;11.85;7.50;;;20.40;32.00;;;;;;5065009;28;20031;-81
2022/03/06 09:30:07;;;;;;;9.52;6.25;;;20.70;31.80;;;;;;5095628;28;20035;-82
2022/03/06 09:32:33;;;;;;;9.85;6.38;;;20.80;30.80;;;;;;4743181;28;9999844;-88
2022/03/06 09:34:59;;;;;;;11.00;6.97;;;21.20;31.30;;;;;;5068303;28;20431;-84
2022/03/06 09:37:25;;;;;;;9.05;5.95;;;21.60;30.80;;;;;;5056490;28;20627;-82
2022/03/06 09:39:51;;;;;;;9.75;6.20;;;21.20;31.20;;;;;;5056058;28;20029;-83
2022/03/06 09:42:21;;;;;;;11.30;7.45;;;21.80;31.80;;;;;;5055480;28;20052;-84
2022/03/06 09:44:47;;;;;;;;;;;22.20;30.50;;;;;;5074592;28;20021;-85
2022/03/06 09:47:14;;;;;;;16.65;8.40;;;20.30;30.50;;;;;;5055908;28;19926;-85
2022/03/06 09:49:43;;;;;;;15.32;7.75;;;19.60;31.60;;;;;;5055987;28;20052;-85
2022/03/06 09:52:10;;;;;;;8.80;6.53;;;20.40;30.70;;;;;;5055564;28;20048;-82
2022/03/06 09:54:36;;;;;;;13.60;7.40;;;19.80;31.50;;;;;;5054613;28;20505;-82
2022/03/06 09:57:02;;;;;;;10.15;6.93;;;19.80;31.50;;;;;;5054843;28;20024;-79
2022/03/06 09:59:30;;;;;;;9.68;6.30;;;20.80;31.90;;;;;;5055993;28;20029;-80
2022/03/06 10:02:03;;;;;;;11.98;7.00;;;21.80;30.60;;;;;;5072995;28;20024;-82
2022/03/06 10:04:34;;;;;;;10.02;6.78;;;22.90;30.40;;;;;;5056156;28;20040;-85
2022/03/06 10:07:07;;;;;;;10.20;6.75;;;23.10;30.00;;;;;;5073723;28;20048;-83
2022/03/06 10:09:44;;;;;;;10.38;7.18;;;23.20;30.00;;;;;;5055939;28;20025;-83
2022/03/06 10:12:26;;;;;;;9.85;7.07;;;22.40;30.20;;;;;;5055741;28;20111;-83
2022/03/06 10:14:53;;;;;;;10.02;7.07;;;23.00;29.90;;;;;;5072497;28;20036;-84
2022/03/06 10:17:24;;;;;;;31.48;10.40;;;22.90;30.00;;;;;;5073017;28;20019;-86
2022/03/06 10:20:04;;;;;;;9.82;6.80;;;24.10;29.80;;;;;;5072097;28;20561;-83
2022/03/06 10:22:34;;;;;;;10.98;7.03;;;25.10;29.90;;;;;;5055496;28;20171;-88
2022/03/06 10:25:16;;;;;;;;;;;24.10;29.50;;;;;;5056170;28;20119;-85
2022/03/06 10:27:57;;;;;;;12.30;7.35;;;22.40;30.20;;;;;;5055686;28;19904;-85
2022/03/06 10:30:34;;;;;;;11.02;6.93;;;21.80;31.10;;;;;;5073403;28;20415;-88
2022/03/06 10:33:10;;;;;;;9.85;7.15;;;22.30;30.40;;;;;;5077922;28;20064;-84
2022/03/06 10:35:40;;;;;;;11.55;7.47;;;21.40;31.60;;;;;;5073931;28;20123;-80
2022/03/06 10:38:29;;;;;;;12.32;7.15;;;22.10;30.90;;;;;;5071979;28;20043;-82
2022/03/06 10:41:00;;;;;;;11.77;7.65;;;22.90;30.40;;;;;;5054412;28;20078;-84
2022/03/06 10:43:34;;;;;;;11.30;6.78;;;22.80;30.10;;;;;;5072193;28;20025;-82
2022/03/06 10:46:07;;;;;;;9.93;6.90;;;22.20;30.20;;;;;;5089304;28;20028;-81
2022/03/06 10:48:33;;;;;;;9.95;6.80;;;22.20;30.90;;;;;;5074713;28;20020;-86
2022/03/06 10:51:05;;;;;;;10.38;7.25;;;22.60;30.50;;;;;;5074536;28;20081;-85
2022/03/06 10:53:31;;;;;;;11.05;7.38;;;21.50;30.30;;;;;;5074716;28;20402;-88
2022/03/06 10:56:15;;;;;;;11.50;7.45;;;21.70;30.80;;;;;;5074485;28;20031;-87
2022/03/06 10:58:43;;;;;;;155.63;100.93;;;22.90;30.00;;;;;;5074352;28;20024;-83
2022/03/06 11:01:10;;;;;;;59.15;40.03;;;23.60;29.50;;;;;;5073958;28;20083;-84
2022/03/06 11:03:36;;;;;;;13.13;7.82;;;24.70;29.40;;;;;;5073822;28;20023;-86
2022/03/06 11:06:03;;;;;;;11.90;7.50;;;24.60;29.50;;;;;;5091772;28;20024;-83
2022/03/06 11:08:30;;;;;;;16.50;7.57;;;24.90;29.80;;;;;;5073281;28;20077;-82
2022/03/06 11:10:56;;;;;;;15.35;7.18;;;26.20;29.00;;;;;;5074653;28;20486;-85
2022/03/06 11:13:23;;;;;;;10.18;7.35;;;24.60;28.60;;;;;;5074674;28;20474;-81
2022/03/06 11:15:49;;;;;;;10.75;7.07;;;22.00;29.10;;;;;;5079205;28;20028;-84
2022/03/06 11:18:16;;;;;;;11.32;7.57;;;20.20;30.70;;;;;;5073206;28;20039;-84
2022/03/06 11:20:45;;;;;;;10.77;7.20;;;20.40;31.20;;;;;;5067742;28;20063;-84
2022/03/06 11:23:38;;;;;;;12.27;7.72;;;19.60;31.30;;;;;;5066971;28;20123;-87
2022/03/06 11:26:14;;;;;;;11.48;7.18;;;17.90;32.30;;;;;;5054483;28;20028;-83
2022/03/06 11:29:05;;;;;;;11.60;7.35;;;16.10;32.20;;;;;;5084073;28;20024;-86
2022/03/06 11:31:55;;;;;;;11.27;7.13;;;14.40;34.10;;;;;;5063648;28;20035;-88
2022/03/06 11:34:26;;;;;;;9.18;6.63;;;12.70;36.00;;;;;;5062174;28;20044;-87
2022/03/06 11:36:52;;;;;;;;;;;12.30;36.10;;;;;;5060778;28;20070;-82
2022/03/06 11:39:30;;;;;;;11.13;6.45;;;12.50;36.40;;;;;;5092417;28;19908;-82
2022/03/06 11:42:04;;;;;;;12.70;7.88;;;13.20;36.20;;;;;;5086797;28;20036;-83
2022/03/06 11:44:36;;;;;;;145.25;89.63;;;13.90;35.60;;;;;;5072586;28;20059;-87
2022/03/06 11:47:18;;;;;;;18.42;7.35;;;14.30;36.10;;;;;;5091740;28;20020;-80
2022/03/06 11:50:01;;;;;;;11.18;7.18;;;14.20;34.40;;;;;;5056759;28;20029;-81
2022/03/06 11:52:30;;;;;;;11.00;6.85;;;13.40;35.50;;;;;;5052013;28;20072;-83
2022/03/06 11:54:57;;;;;;;20.33;11.30;;;12.70;36.60;;;;;;5050846;28;20411;-82
2022/03/06 11:57:42;;;;;;;16.48;10.02;;;13.20;36.80;;;;;;5050119;28;20032;-82
2022/03/06 12:00:26;;;;;;;10.43;6.75;;;14.20;36.10;;;;;;5051464;28;20057;-82
2022/03/06 12:02:55;;;;;;;15.00;7.10;;;14.50;35.20;;;;;;5051223;28;20028;-86
2022/03/06 12:05:23;;;;;;;12.68;7.80;;;14.60;34.40;;;;;;5064367;28;20024;-83
2022/03/06 12:07:50;;;;;;;11.90;6.97;;;14.80;35.10;;;;;;5066719;28;20377;-80
2022/03/06 12:10:17;;;;;;;11.32;7.20;;;14.20;34.20;;;;;;5054021;28;20029;-81
2022/03/06 12:12:55;;;;;;;10.90;6.90;;;13.30;35.80;;;;;;5051490;28;20108;-81
2022/03/06 12:15:28;;;;;;;9.95;6.55;;;13.60;36.10;;;;;;5053526;28;20028;-83
2022/03/06 12:18:04;;;;;;;11.35;7.30;;;14.50;35.00;;;;;;5051370;28;20109;-85
2022/03/06 12:20:42;;;;;;;12.30;6.95;;;15.20;34.60;;;;;;5064593;28;20074;-88
2022/03/06 12:23:21;;;;;;;13.45;6.60;;;15.80;34.30;;;;;;5073567;28;20039;-86
2022/03/06 12:25:52;;;;;;;13.35;7.90;;;15.60;34.80;;;;;;5073626;28;20029;-80
2022/03/06 12:28:19;;;;;;;12.75;8.07;;;15.60;34.20;;;;;;5073783;28;20029;-80
2022/03/06 12:30:46;;;;;;;11.93;6.78;;;15.50;34.60;;;;;;5070546;28;20017;-80
2022/03/06 12:33:28;;;;;;;11.07;6.47;;;15.50;34.90;;;;;;5052921;28;20136;-79
2022/03/06 12:36:21;;;;;;;12.75;6.97;;;14.80;33.80;;;;;;5052806;28;20120;-81
2022/03/06 12:38:52;;;;;;;9.77;6.60;;;14.50;35.10;;;;;;5056492;28;20066;-80
2022/03/06 12:41:18;;;;;;;10.82;6.75;;;14.50;34.70;;;;;;5059996;28;20373;-80
2022/03/06 12:43:47;;;;;;;10.90;7.28;;;14.30;34.40;;;;;;5054966;28;20029;-82
2022/03/06 12:46:14;;;;;;;14.10;8.88;;;14.10;34.30;;;;;;5052983;28;20046;-81